sensor_id;sensor_type;location;lat;lon;timestamp;P1;durP1;ratioP1;P2;durP2;ratioP2
34489;SDS011;20730;49.372;7.324;2023-05-10T00:01:08;3.72;;;3.30;;
34489;SDS011;20730;49.372;7.324;2023-05-10T00:03:35;4.03;;;3.63;;
34489;SDS011;20730;49.372;7.324;2023-05-10T00:06:01;3.47;;;3.17;;
34489;SDS011;20730;49.372;7.324;2023-05-10T00:08:28;4.60;;;3.70;;
34489;SDS011;20730;49.372;7.324;2023-05-10T00:10:55;4.40;;;4.00;;
34489;SDS011;20730;49.372;7.324;2023-05-10T00:13:22;4.57;;;4.05;;
34489;SDS011;20730;49.372;7.324;2023-05-10T00:15:49;5.72;;;4.05;;
34489;SDS011;20730;49.372;7.324;2023-05-10T00:18:15;6.85;;;3.97;;
34489;SDS011;20730;49.372;7.324;2023-05-10T00:20:42;4.80;;;4.22;;
34489;SDS011;20730;49.372;7.324;2023-05-10T00:23:09;5.10;;;4.53;;
34489;SDS011;20730;49.372;7.324;2023-05-10T00:25:35;4.35;;;3.90;;
34489;SDS011;20730;49.372;7.324;2023-05-10T00:28:02;5.05;;;4.30;;
34489;SDS011;20730;49.372;7.324;2023-05-10T00:30:29;4.32;;;3.92;;
34489;SDS011;20730;49.372;7.324;2023-05-10T00:32:55;4.93;;;4.43;;
34489;SDS011;20730;49.372;7.324;2023-05-10T00:35:22;5.93;;;3.72;;
34489;SDS011;20730;49.372;7.324;2023-05-10T00:37:49;4.70;;;4.10;;
34489;SDS011;20730;49.372;7.324;2023-05-10T00:40:16;4.53;;;4.13;;
34489;SDS011;20730;49.372;7.324;2023-05-10T00:42:47;4.38;;;3.97;;
34489;SDS011;20730;49.372;7.324;2023-05-10T00:45:14;4.78;;;4.38;;
34489;SDS011;20730;49.372;7.324;2023-05-10T00:47:40;6.80;;;4.65;;
34489;SDS011;20730;49.372;7.324;2023-05-10T00:50:07;8.00;;;4.43;;
34489;SDS011;20730;49.372;7.324;2023-05-10T00:52:35;8.68;;;4.82;;
34489;SDS011;20730;49.372;7.324;2023-05-10T00:55:03;6.20;;;4.82;;
34489;SDS011;20730;49.372;7.324;2023-05-10T00:57:30;5.32;;;4.80;;
34489;SDS011;20730;49.372;7.324;2023-05-10T00:59:58;4.72;;;4.28;;
34489;SDS011;20730;49.372;7.324;2023-05-10T01:02:25;4.90;;;4.40;;
34489;SDS011;20730;49.372;7.324;2023-05-10T01:04:52;4.13;;;3.72;;
34489;SDS011;20730;49.372;7.324;2023-05-10T01:07:20;4.85;;;3.60;;
34489;SDS011;20730;49.372;7.324;2023-05-10T01:09:47;4.18;;;3.58;;
34489;SDS011;20730;49.372;7.324;2023-05-10T01:12:15;7.05;;;3.17;;
34489;SDS011;20730;49.372;7.324;2023-05-10T01:14:42;6.15;;;3.35;;
34489;SDS011;20730;49.372;7.324;2023-05-10T01:17:09;3.30;;;3.00;;
34489;SDS011;20730;49.372;7.324;2023-05-10T01:19:37;5.00;;;3.33;;
34489;SDS011;20730;49.372;7.324;2023-05-10T01:22:09;3.60;;;2.90;;
34489;SDS011;20730;49.372;7.324;2023-05-10T01:33:41;3.90;;;3.10;;
34489;SDS011;20730;49.372;7.324;2023-05-10T01:41:18;6.70;;;3.67;;
34489;SDS011;20730;49.372;7.324;2023-05-10T01:46:40;4.78;;;4.00;;
34489;SDS011;20730;49.372;7.324;2023-05-10T01:49:08;6.15;;;4.80;;
34489;SDS011;20730;49.372;7.324;2023-05-10T01:51:47;7.68;;;5.13;;
34489;SDS011;20730;49.372;7.324;2023-05-10T01:54:16;9.70;;;4.80;;
34489;SDS011;20730;49.372;7.324;2023-05-10T01:56:44;6.53;;;4.35;;
34489;SDS011;20730;49.372;7.324;2023-05-10T01:59:13;5.40;;;3.55;;
34489;SDS011;20730;49.372;7.324;2023-05-10T02:01:42;6.00;;;4.75;;
34489;SDS011;20730;49.372;7.324;2023-05-10T02:04:10;8.38;;;4.65;;
34489;SDS011;20730;49.372;7.324;2023-05-10T02:06:38;6.63;;;5.25;;
34489;SDS011;20730;49.372;7.324;2023-05-10T02:09:05;5.95;;;5.00;;
34489;SDS011;20730;49.372;7.324;2023-05-10T02:11:33;7.40;;;5.30;;
34489;SDS011;20730;49.372;7.324;2023-05-10T02:14:01;5.97;;;5.22;;
34489;SDS011;20730;49.372;7.324;2023-05-10T02:16:28;7.93;;;6.00;;
34489;SDS011;20730;49.372;7.324;2023-05-10T02:21:26;9.35;;;5.28;;
34489;SDS011;20730;49.372;7.324;2023-05-10T02:23:53;6.18;;;5.57;;
34489;SDS011;20730;49.372;7.324;2023-05-10T02:26:21;6.95;;;5.53;;
34489;SDS011;20730;49.372;7.324;2023-05-10T02:28:49;8.43;;;6.40;;
34489;SDS011;20730;49.372;7.324;2023-05-10T02:31:17;10.13;;;6.72;;
34489;SDS011;20730;49.372;7.324;2023-05-10T02:33:44;9.00;;;6.55;;
34489;SDS011;20730;49.372;7.324;2023-05-10T02:36:12;7.43;;;6.60;;
34489;SDS011;20730;49.372;7.324;2023-05-10T02:38:39;8.43;;;6.55;;
34489;SDS011;20730;49.372;7.324;2023-05-10T02:41:07;10.57;;;6.78;;
34489;SDS011;20730;49.372;7.324;2023-05-10T02:43:35;10.07;;;6.47;;
34489;SDS011;20730;49.372;7.324;2023-05-10T02:46:02;8.13;;;6.55;;
34489;SDS011;20730;49.372;7.324;2023-05-10T02:48:30;9.75;;;6.60;;
34489;SDS011;20730;49.372;7.324;2023-05-10T02:51:05;8.63;;;6.93;;
34489;SDS011;20730;49.372;7.324;2023-05-10T02:53:34;8.35;;;6.40;;
34489;SDS011;20730;49.372;7.324;2023-05-10T02:56:13;7.57;;;6.05;;
34489;SDS011;20730;49.372;7.324;2023-05-10T02:58:42;12.75;;;6.63;;
34489;SDS011;20730;49.372;7.324;2023-05-10T03:01:09;7.72;;;6.63;;
34489;SDS011;20730;49.372;7.324;2023-05-10T03:03:37;13.02;;;6.90;;
34489;SDS011;20730;49.372;7.324;2023-05-10T03:06:04;8.23;;;6.90;;
34489;SDS011;20730;49.372;7.324;2023-05-10T03:08:31;9.40;;;6.68;;
34489;SDS011;20730;49.372;7.324;2023-05-10T03:11:09;10.07;;;7.28;;
34489;SDS011;20730;49.372;7.324;2023-05-10T03:16:52;10.23;;;7.88;;
34489;SDS011;20730;49.372;7.324;2023-05-10T03:19:51;13.70;;;7.93;;
34489;SDS011;20730;49.372;7.324;2023-05-10T03:22:23;13.52;;;8.20;;
34489;SDS011;20730;49.372;7.324;2023-05-10T03:24:53;11.07;;;7.53;;
34489;SDS011;20730;49.372;7.324;2023-05-10T03:27:25;12.70;;;7.68;;
34489;SDS011;20730;49.372;7.324;2023-05-10T03:29:54;10.95;;;8.30;;
34489;SDS011;20730;49.372;7.324;2023-05-10T03:32:22;14.05;;;7.85;;
34489;SDS011;20730;49.372;7.324;2023-05-10T03:34:50;10.05;;;7.70;;
34489;SDS011;20730;49.372;7.324;2023-05-10T03:37:17;13.10;;;8.50;;
34489;SDS011;20730;49.372;7.324;2023-05-10T03:39:44;14.90;;;7.85;;
34489;SDS011;20730;49.372;7.324;2023-05-10T03:42:11;9.73;;;7.40;;
34489;SDS011;20730;49.372;7.324;2023-05-10T03:44:39;10.63;;;7.97;;
34489;SDS011;20730;49.372;7.324;2023-05-10T03:47:06;12.20;;;8.40;;
34489;SDS011;20730;49.372;7.324;2023-05-10T03:49:33;10.48;;;8.07;;
34489;SDS011;20730;49.372;7.324;2023-05-10T03:52:01;10.35;;;8.10;;
34489;SDS011;20730;49.372;7.324;2023-05-10T03:54:28;11.32;;;9.13;;
34489;SDS011;20730;49.372;7.324;2023-05-10T03:56:57;11.50;;;10.07;;
34489;SDS011;20730;49.372;7.324;2023-05-10T03:59:25;12.27;;;10.48;;
34489;SDS011;20730;49.372;7.324;2023-05-10T04:01:52;10.77;;;8.60;;
34489;SDS011;20730;49.372;7.324;2023-05-10T04:04:19;12.32;;;8.55;;
34489;SDS011;20730;49.372;7.324;2023-05-10T04:06:48;12.50;;;7.18;;
34489;SDS011;20730;49.372;7.324;2023-05-10T04:09:15;9.40;;;7.43;;
34489;SDS011;20730;49.372;7.324;2023-05-10T04:11:43;8.73;;;6.00;;
34489;SDS011;20730;49.372;7.324;2023-05-10T04:14:10;9.40;;;6.45;;
34489;SDS011;20730;49.372;7.324;2023-05-10T04:16:37;6.32;;;5.72;;
34489;SDS011;20730;49.372;7.324;2023-05-10T04:19:04;8.80;;;5.40;;
34489;SDS011;20730;49.372;7.324;2023-05-10T04:21:32;5.18;;;4.78;;
34489;SDS011;20730;49.372;7.324;2023-05-10T04:23:59;6.13;;;5.53;;
34489;SDS011;20730;49.372;7.324;2023-05-10T04:26:26;5.28;;;4.70;;
34489;SDS011;20730;49.372;7.324;2023-05-10T04:28:53;7.15;;;4.85;;
34489;SDS011;20730;49.372;7.324;2023-05-10T04:31:20;7.45;;;5.30;;
34489;SDS011;20730;49.372;7.324;2023-05-10T04:33:47;6.50;;;5.72;;
34489;SDS011;20730;49.372;7.324;2023-05-10T04:36:14;6.60;;;5.90;;
34489;SDS011;20730;49.372;7.324;2023-05-10T04:38:41;6.18;;;5.57;;
34489;SDS011;20730;49.372;7.324;2023-05-10T04:41:10;8.32;;;5.50;;
34489;SDS011;20730;49.372;7.324;2023-05-10T04:43:37;7.85;;;5.70;;
34489;SDS011;20730;49.372;7.324;2023-05-10T04:46:05;5.75;;;5.18;;
34489;SDS011;20730;49.372;7.324;2023-05-10T04:48:32;6.10;;;5.38;;
34489;SDS011;20730;49.372;7.324;2023-05-10T04:51:00;9.20;;;5.90;;
34489;SDS011;20730;49.372;7.324;2023-05-10T04:53:27;9.57;;;5.82;;
34489;SDS011;20730;49.372;7.324;2023-05-10T04:55:54;7.40;;;5.70;;
34489;SDS011;20730;49.372;7.324;2023-05-10T04:58:21;6.45;;;5.40;;
34489;SDS011;20730;49.372;7.324;2023-05-10T05:00:49;8.48;;;5.45;;
34489;SDS011;20730;49.372;7.324;2023-05-10T05:03:15;5.20;;;4.70;;
34489;SDS011;20730;49.372;7.324;2023-05-10T05:05:43;5.97;;;4.10;;
34489;SDS011;20730;49.372;7.324;2023-05-10T05:08:11;5.65;;;3.65;;
34489;SDS011;20730;49.372;7.324;2023-05-10T05:10:38;3.60;;;3.30;;
34489;SDS011;20730;49.372;7.324;2023-05-10T05:13:05;8.73;;;3.42;;
34489;SDS011;20730;49.372;7.324;2023-05-10T05:15:32;3.30;;;2.90;;
34489;SDS011;20730;49.372;7.324;2023-05-10T05:17:59;2.65;;;2.45;;
34489;SDS011;20730;49.372;7.324;2023-05-10T05:20:26;3.22;;;2.90;;
34489;SDS011;20730;49.372;7.324;2023-05-10T05:22:53;2.70;;;2.50;;
34489;SDS011;20730;49.372;7.324;2023-05-10T05:25:20;3.40;;;3.10;;
34489;SDS011;20730;49.372;7.324;2023-05-10T05:27:48;3.97;;;2.75;;
34489;SDS011;20730;49.372;7.324;2023-05-10T05:30:15;3.58;;;3.20;;
34489;SDS011;20730;49.372;7.324;2023-05-10T05:32:43;3.88;;;3.10;;
34489;SDS011;20730;49.372;7.324;2023-05-10T05:35:10;4.95;;;3.40;;
34489;SDS011;20730;49.372;7.324;2023-05-10T05:37:38;5.97;;;4.50;;
34489;SDS011;20730;49.372;7.324;2023-05-10T05:40:05;4.85;;;4.10;;
34489;SDS011;20730;49.372;7.324;2023-05-10T05:42:33;4.45;;;4.05;;
34489;SDS011;20730;49.372;7.324;2023-05-10T05:45:00;4.40;;;4.00;;
34489;SDS011;20730;49.372;7.324;2023-05-10T05:47:27;4.18;;;3.78;;
34489;SDS011;20730;49.372;7.324;2023-05-10T05:49:54;4.30;;;3.90;;
34489;SDS011;20730;49.372;7.324;2023-05-10T05:52:21;4.30;;;3.40;;
34489;SDS011;20730;49.372;7.324;2023-05-10T05:54:48;3.20;;;2.90;;
34489;SDS011;20730;49.372;7.324;2023-05-10T05:57:16;3.45;;;3.08;;
34489;SDS011;20730;49.372;7.324;2023-05-10T05:59:43;4.88;;;2.50;;
34489;SDS011;20730;49.372;7.324;2023-05-10T06:02:11;4.43;;;2.63;;
34489;SDS011;20730;49.372;7.324;2023-05-10T06:04:38;3.55;;;1.80;;
34489;SDS011;20730;49.372;7.324;2023-05-10T06:07:09;3.25;;;1.60;;
34489;SDS011;20730;49.372;7.324;2023-05-10T06:09:37;2.17;;;1.70;;
34489;SDS011;20730;49.372;7.324;2023-05-10T06:12:04;1.80;;;1.50;;
34489;SDS011;20730;49.372;7.324;2023-05-10T06:14:31;2.72;;;1.65;;
34489;SDS011;20730;49.372;7.324;2023-05-10T06:16:58;1.40;;;1.30;;
34489;SDS011;20730;49.372;7.324;2023-05-10T06:19:26;2.72;;;1.70;;
34489;SDS011;20730;49.372;7.324;2023-05-10T06:21:53;5.30;;;1.70;;
34489;SDS011;20730;49.372;7.324;2023-05-10T06:24:21;4.85;;;1.85;;
34489;SDS011;20730;49.372;7.324;2023-05-10T06:26:48;1.98;;;1.80;;
34489;SDS011;20730;49.372;7.324;2023-05-10T06:29:16;3.65;;;1.60;;
34489;SDS011;20730;49.372;7.324;2023-05-10T06:31:44;3.38;;;1.55;;
34489;SDS011;20730;49.372;7.324;2023-05-10T06:34:11;2.70;;;1.60;;
34489;SDS011;20730;49.372;7.324;2023-05-10T06:36:39;1.70;;;1.30;;
34489;SDS011;20730;49.372;7.324;2023-05-10T06:39:07;3.35;;;2.08;;
34489;SDS011;20730;49.372;7.324;2023-05-10T06:41:34;3.20;;;1.83;;
34489;SDS011;20730;49.372;7.324;2023-05-10T06:44:01;3.03;;;1.50;;
34489;SDS011;20730;49.372;7.324;2023-05-10T06:46:28;1.55;;;1.45;;
34489;SDS011;20730;49.372;7.324;2023-05-10T06:48:55;5.30;;;1.50;;
34489;SDS011;20730;49.372;7.324;2023-05-10T06:51:22;1.63;;;1.40;;
34489;SDS011;20730;49.372;7.324;2023-05-10T06:53:49;4.55;;;1.85;;
34489;SDS011;20730;49.372;7.324;2023-05-10T06:56:16;2.28;;;2.00;;
34489;SDS011;20730;49.372;7.324;2023-05-10T06:58:44;2.00;;;1.70;;
34489;SDS011;20730;49.372;7.324;2023-05-10T07:01:12;2.45;;;1.50;;
34489;SDS011;20730;49.372;7.324;2023-05-10T07:03:40;1.50;;;1.33;;
34489;SDS011;20730;49.372;7.324;2023-05-10T07:06:07;2.60;;;1.75;;
34489;SDS011;20730;49.372;7.324;2023-05-10T07:08:44;2.90;;;1.52;;
34489;SDS011;20730;49.372;7.324;2023-05-10T07:11:11;4.07;;;2.03;;
34489;SDS011;20730;49.372;7.324;2023-05-10T07:13:38;2.40;;;1.13;;
34489;SDS011;20730;49.372;7.324;2023-05-10T07:16:08;1.63;;;1.20;;
34489;SDS011;20730;49.372;7.324;2023-05-10T07:18:35;2.95;;;1.23;;
34489;SDS011;20730;49.372;7.324;2023-05-10T07:21:02;1.83;;;1.10;;
34489;SDS011;20730;49.372;7.324;2023-05-10T07:23:30;1.75;;;1.20;;
34489;SDS011;20730;49.372;7.324;2023-05-10T07:25:57;4.05;;;1.50;;
34489;SDS011;20730;49.372;7.324;2023-05-10T07:28:24;1.30;;;1.20;;
34489;SDS011;20730;49.372;7.324;2023-05-10T07:30:51;1.73;;;1.30;;
34489;SDS011;20730;49.372;7.324;2023-05-10T07:33:18;1.90;;;1.55;;
34489;SDS011;20730;49.372;7.324;2023-05-10T07:35:45;1.50;;;1.08;;
34489;SDS011;20730;49.372;7.324;2023-05-10T07:38:12;1.27;;;1.10;;
34489;SDS011;20730;49.372;7.324;2023-05-10T07:40:40;1.20;;;1.10;;
34489;SDS011;20730;49.372;7.324;2023-05-10T07:43:07;3.53;;;1.30;;
34489;SDS011;20730;49.372;7.324;2023-05-10T07:45:34;2.13;;;1.27;;
34489;SDS011;20730;49.372;7.324;2023-05-10T07:48:01;2.70;;;1.50;;
34489;SDS011;20730;49.372;7.324;2023-05-10T07:50:28;3.33;;;1.30;;
34489;SDS011;20730;49.372;7.324;2023-05-10T07:52:55;2.00;;;1.20;;
34489;SDS011;20730;49.372;7.324;2023-05-10T07:55:23;1.42;;;1.33;;
34489;SDS011;20730;49.372;7.324;2023-05-10T07:57:50;2.08;;;1.55;;
34489;SDS011;20730;49.372;7.324;2023-05-10T08:00:18;2.75;;;1.05;;
34489;SDS011;20730;49.372;7.324;2023-05-10T08:02:46;0.85;;;0.85;;
34489;SDS011;20730;49.372;7.324;2023-05-10T08:05:14;1.30;;;1.10;;
34489;SDS011;20730;49.372;7.324;2023-05-10T08:07:42;2.35;;;1.20;;
34489;SDS011;20730;49.372;7.324;2023-05-10T08:10:09;1.55;;;0.88;;
34489;SDS011;20730;49.372;7.324;2023-05-10T08:12:37;0.80;;;0.73;;
34489;SDS011;20730;49.372;7.324;2023-05-10T08:15:06;0.80;;;0.80;;
34489;SDS011;20730;49.372;7.324;2023-05-10T08:17:33;0.75;;;0.60;;
34489;SDS011;20730;49.372;7.324;2023-05-10T08:20:00;1.30;;;0.80;;
34489;SDS011;20730;49.372;7.324;2023-05-10T08:22:27;0.82;;;0.82;;
34489;SDS011;20730;49.372;7.324;2023-05-10T08:24:55;2.33;;;0.70;;
34489;SDS011;20730;49.372;7.324;2023-05-10T08:27:22;2.28;;;0.70;;
34489;SDS011;20730;49.372;7.324;2023-05-10T08:29:49;2.25;;;0.77;;
34489;SDS011;20730;49.372;7.324;2023-05-10T08:32:16;1.00;;;0.80;;
34489;SDS011;20730;49.372;7.324;2023-05-10T08:34:44;0.98;;;0.80;;
34489;SDS011;20730;49.372;7.324;2023-05-10T08:37:10;1.10;;;0.80;;
34489;SDS011;20730;49.372;7.324;2023-05-10T08:39:40;2.25;;;0.80;;
34489;SDS011;20730;49.372;7.324;2023-05-10T08:42:07;1.00;;;0.73;;
34489;SDS011;20730;49.372;7.324;2023-05-10T08:44:35;1.48;;;1.00;;
34489;SDS011;20730;49.372;7.324;2023-05-10T08:47:06;3.60;;;1.73;;
34489;SDS011;20730;49.372;7.324;2023-05-10T08:49:33;1.65;;;0.80;;
34489;SDS011;20730;49.372;7.324;2023-05-10T08:52:02;1.10;;;0.73;;
34489;SDS011;20730;49.372;7.324;2023-05-10T08:54:31;3.30;;;0.88;;
34489;SDS011;20730;49.372;7.324;2023-05-10T08:56:59;2.42;;;1.30;;
34489;SDS011;20730;49.372;7.324;2023-05-10T08:59:27;1.15;;;1.02;;
34489;SDS011;20730;49.372;7.324;2023-05-10T09:01:54;1.58;;;1.10;;
34489;SDS011;20730;49.372;7.324;2023-05-10T09:04:24;3.55;;;1.33;;
34489;SDS011;20730;49.372;7.324;2023-05-10T09:06:52;2.60;;;1.30;;
34489;SDS011;20730;49.372;7.324;2023-05-10T09:09:20;3.13;;;1.42;;
34489;SDS011;20730;49.372;7.324;2023-05-10T09:11:48;4.63;;;1.45;;
34489;SDS011;20730;49.372;7.324;2023-05-10T09:14:15;1.85;;;1.60;;
34489;SDS011;20730;49.372;7.324;2023-05-10T09:16:42;2.28;;;1.30;;
34489;SDS011;20730;49.372;7.324;2023-05-10T09:19:09;3.30;;;1.70;;
34489;SDS011;20730;49.372;7.324;2023-05-10T09:21:37;3.35;;;1.40;;
34489;SDS011;20730;49.372;7.324;2023-05-10T09:26:35;2.90;;;1.00;;
34489;SDS011;20730;49.372;7.324;2023-05-10T09:29:03;4.40;;;1.48;;
34489;SDS011;20730;49.372;7.324;2023-05-10T09:31:46;3.58;;;1.20;;
34489;SDS011;20730;49.372;7.324;2023-05-10T09:34:19;2.90;;;1.10;;
34489;SDS011;20730;49.372;7.324;2023-05-10T09:36:51;6.80;;;0.98;;
34489;SDS011;20730;49.372;7.324;2023-05-10T09:39:19;4.90;;;1.15;;
34489;SDS011;20730;49.372;7.324;2023-05-10T09:41:46;2.25;;;0.90;;
34489;SDS011;20730;49.372;7.324;2023-05-10T09:44:16;2.03;;;0.85;;
34489;SDS011;20730;49.372;7.324;2023-05-10T09:46:48;2.85;;;1.10;;
34489;SDS011;20730;49.372;7.324;2023-05-10T09:49:16;4.38;;;1.13;;
34489;SDS011;20730;49.372;7.324;2023-05-10T09:51:43;1.63;;;0.80;;
34489;SDS011;20730;49.372;7.324;2023-05-10T09:54:14;3.30;;;0.95;;
34489;SDS011;20730;49.372;7.324;2023-05-10T09:56:42;5.18;;;0.80;;
34489;SDS011;20730;49.372;7.324;2023-05-10T09:59:10;4.80;;;1.20;;
34489;SDS011;20730;49.372;7.324;2023-05-10T10:01:38;3.03;;;0.73;;
34489;SDS011;20730;49.372;7.324;2023-05-10T10:04:06;3.33;;;1.10;;
34489;SDS011;20730;49.372;7.324;2023-05-10T10:06:37;3.88;;;1.00;;
34489;SDS011;20730;49.372;7.324;2023-05-10T10:09:06;3.80;;;1.13;;
34489;SDS011;20730;49.372;7.324;2023-05-10T10:11:34;3.17;;;1.00;;
34489;SDS011;20730;49.372;7.324;2023-05-10T10:14:02;6.18;;;1.05;;
34489;SDS011;20730;49.372;7.324;2023-05-10T10:16:29;9.48;;;1.23;;
34489;SDS011;20730;49.372;7.324;2023-05-10T10:18:57;4.70;;;1.02;;
34489;SDS011;20730;49.372;7.324;2023-05-10T10:21:25;3.55;;;1.13;;
34489;SDS011;20730;49.372;7.324;2023-05-10T10:23:52;7.82;;;1.20;;
34489;SDS011;20730;49.372;7.324;2023-05-10T10:26:19;3.33;;;1.20;;
34489;SDS011;20730;49.372;7.324;2023-05-10T10:31:30;5.90;;;1.10;;
34489;SDS011;20730;49.372;7.324;2023-05-10T10:34:14;4.22;;;0.93;;
34489;SDS011;20730;49.372;7.324;2023-05-10T10:36:48;4.03;;;1.00;;
34489;SDS011;20730;49.372;7.324;2023-05-10T10:39:16;2.15;;;0.73;;
34489;SDS011;20730;49.372;7.324;2023-05-10T10:41:52;2.78;;;0.60;;
34489;SDS011;20730;49.372;7.324;2023-05-10T10:52:21;3.88;;;0.88;;
34489;SDS011;20730;49.372;7.324;2023-05-10T10:57:26;2.15;;;0.70;;
34489;SDS011;20730;49.372;7.324;2023-05-10T11:00:17;2.20;;;0.63;;
34489;SDS011;20730;49.372;7.324;2023-05-10T11:02:57;3.20;;;0.73;;
34489;SDS011;20730;49.372;7.324;2023-05-10T11:05:46;2.80;;;0.85;;
34489;SDS011;20730;49.372;7.324;2023-05-10T11:08:30;2.75;;;0.65;;
34489;SDS011;20730;49.372;7.324;2023-05-10T11:11:05;3.92;;;0.70;;
34489;SDS011;20730;49.372;7.324;2023-05-10T11:13:46;3.85;;;0.75;;
34489;SDS011;20730;49.372;7.324;2023-05-10T11:18:51;1.58;;;0.57;;
34489;SDS011;20730;49.372;7.324;2023-05-10T11:21:20;1.02;;;0.40;;
34489;SDS011;20730;49.372;7.324;2023-05-10T11:26:15;1.02;;;0.60;;
34489;SDS011;20730;49.372;7.324;2023-05-10T11:28:43;2.17;;;0.90;;
34489;SDS011;20730;49.372;7.324;2023-05-10T11:31:13;6.55;;;0.63;;
34489;SDS011;20730;49.372;7.324;2023-05-10T11:36:15;2.63;;;0.70;;
34489;SDS011;20730;49.372;7.324;2023-05-10T11:38:44;3.83;;;0.88;;
34489;SDS011;20730;49.372;7.324;2023-05-10T11:41:11;3.22;;;0.90;;
34489;SDS011;20730;49.372;7.324;2023-05-10T11:43:39;2.75;;;0.63;;
34489;SDS011;20730;49.372;7.324;2023-05-10T11:46:07;1.98;;;0.70;;
34489;SDS011;20730;49.372;7.324;2023-05-10T11:48:35;1.38;;;0.57;;
34489;SDS011;20730;49.372;7.324;2023-05-10T11:51:03;3.88;;;0.70;;
34489;SDS011;20730;49.372;7.324;2023-05-10T11:53:31;5.93;;;1.08;;
34489;SDS011;20730;49.372;7.324;2023-05-10T11:56:02;1.73;;;0.60;;
34489;SDS011;20730;49.372;7.324;2023-05-10T11:58:36;3.45;;;0.88;;
34489;SDS011;20730;49.372;7.324;2023-05-10T12:01:06;1.33;;;0.70;;
34489;SDS011;20730;49.372;7.324;2023-05-10T12:03:34;1.25;;;0.80;;
34489;SDS011;20730;49.372;7.324;2023-05-10T12:06:02;3.47;;;0.80;;
34489;SDS011;20730;49.372;7.324;2023-05-10T12:08:29;3.92;;;1.00;;
34489;SDS011;20730;49.372;7.324;2023-05-10T12:11:04;4.53;;;1.35;;
34489;SDS011;20730;49.372;7.324;2023-05-10T12:13:38;2.88;;;0.70;;
34489;SDS011;20730;49.372;7.324;2023-05-10T12:18:41;3.33;;;0.80;;
34489;SDS011;20730;49.372;7.324;2023-05-10T12:21:09;6.60;;;0.88;;
34489;SDS011;20730;49.372;7.324;2023-05-10T12:23:38;1.42;;;1.00;;
34489;SDS011;20730;49.372;7.324;2023-05-10T12:26:05;1.23;;;0.80;;
34489;SDS011;20730;49.372;7.324;2023-05-10T12:28:33;3.95;;;1.23;;
34489;SDS011;20730;49.372;7.324;2023-05-10T12:31:00;1.90;;;0.70;;
34489;SDS011;20730;49.372;7.324;2023-05-10T12:33:38;2.60;;;0.70;;
34489;SDS011;20730;49.372;7.324;2023-05-10T12:36:10;2.85;;;0.68;;
34489;SDS011;20730;49.372;7.324;2023-05-10T12:38:39;2.95;;;0.60;;
34489;SDS011;20730;49.372;7.324;2023-05-10T12:41:10;4.50;;;0.60;;
34489;SDS011;20730;49.372;7.324;2023-05-10T12:43:39;2.57;;;0.83;;
34489;SDS011;20730;49.372;7.324;2023-05-10T12:46:10;1.50;;;0.70;;
34489;SDS011;20730;49.372;7.324;2023-05-10T12:48:39;3.45;;;0.50;;
34489;SDS011;20730;49.372;7.324;2023-05-10T12:51:07;1.95;;;0.60;;
34489;SDS011;20730;49.372;7.324;2023-05-10T12:53:36;0.55;;;0.47;;
34489;SDS011;20730;49.372;7.324;2023-05-10T12:56:04;1.95;;;0.80;;
34489;SDS011;20730;49.372;7.324;2023-05-10T12:58:31;2.83;;;0.60;;
34489;SDS011;20730;49.372;7.324;2023-05-10T13:01:01;2.00;;;0.85;;
34489;SDS011;20730;49.372;7.324;2023-05-10T13:03:29;5.25;;;2.00;;
34489;SDS011;20730;49.372;7.324;2023-05-10T13:05:57;4.13;;;0.80;;
34489;SDS011;20730;49.372;7.324;2023-05-10T13:08:24;3.33;;;0.60;;
34489;SDS011;20730;49.372;7.324;2023-05-10T13:10:51;4.05;;;0.90;;
34489;SDS011;20730;49.372;7.324;2023-05-10T13:13:19;4.97;;;0.50;;
34489;SDS011;20730;49.372;7.324;2023-05-10T13:15:46;1.38;;;0.60;;
34489;SDS011;20730;49.372;7.324;2023-05-10T13:18:13;0.88;;;0.50;;
34489;SDS011;20730;49.372;7.324;2023-05-10T13:20:40;1.63;;;0.40;;
34489;SDS011;20730;49.372;7.324;2023-05-10T13:23:07;2.40;;;0.50;;
34489;SDS011;20730;49.372;7.324;2023-05-10T13:25:34;1.60;;;0.40;;
34489;SDS011;20730;49.372;7.324;2023-05-10T13:28:01;1.02;;;0.40;;
34489;SDS011;20730;49.372;7.324;2023-05-10T13:30:29;2.15;;;0.60;;
34489;SDS011;20730;49.372;7.324;2023-05-10T13:32:56;3.03;;;0.80;;
34489;SDS011;20730;49.372;7.324;2023-05-10T13:35:23;1.95;;;0.47;;
34489;SDS011;20730;49.372;7.324;2023-05-10T13:37:50;1.45;;;0.60;;
34489;SDS011;20730;49.372;7.324;2023-05-10T13:40:17;1.30;;;0.40;;
34489;SDS011;20730;49.372;7.324;2023-05-10T13:42:44;1.50;;;0.85;;
34489;SDS011;20730;49.372;7.324;2023-05-10T13:45:11;0.65;;;0.30;;
34489;SDS011;20730;49.372;7.324;2023-05-10T13:47:39;1.08;;;0.40;;
34489;SDS011;20730;49.372;7.324;2023-05-10T13:50:07;2.75;;;0.45;;
34489;SDS011;20730;49.372;7.324;2023-05-10T13:52:34;2.47;;;0.50;;
34489;SDS011;20730;49.372;7.324;2023-05-10T13:55:02;2.38;;;0.40;;
34489;SDS011;20730;49.372;7.324;2023-05-10T13:57:29;2.13;;;0.50;;
34489;SDS011;20730;49.372;7.324;2023-05-10T13:59:56;0.60;;;0.40;;
34489;SDS011;20730;49.372;7.324;2023-05-10T14:02:24;1.35;;;0.60;;
34489;SDS011;20730;49.372;7.324;2023-05-10T14:04:51;1.13;;;0.52;;
34489;SDS011;20730;49.372;7.324;2023-05-10T14:07:18;0.55;;;0.30;;
34489;SDS011;20730;49.372;7.324;2023-05-10T14:09:45;0.95;;;0.50;;
34489;SDS011;20730;49.372;7.324;2023-05-10T14:12:12;2.95;;;0.50;;
34489;SDS011;20730;49.372;7.324;2023-05-10T14:14:41;3.97;;;0.57;;
34489;SDS011;20730;49.372;7.324;2023-05-10T14:17:08;1.20;;;0.40;;
34489;SDS011;20730;49.372;7.324;2023-05-10T14:19:38;3.03;;;0.50;;
34489;SDS011;20730;49.372;7.324;2023-05-10T14:22:05;0.85;;;0.50;;
34489;SDS011;20730;49.372;7.324;2023-05-10T14:24:32;0.70;;;0.40;;
34489;SDS011;20730;49.372;7.324;2023-05-10T14:26:59;2.70;;;0.45;;
34489;SDS011;20730;49.372;7.324;2023-05-10T14:29:27;3.72;;;0.32;;
34489;SDS011;20730;49.372;7.324;2023-05-10T14:31:54;0.65;;;0.50;;
34489;SDS011;20730;49.372;7.324;2023-05-10T14:34:21;0.90;;;0.30;;
34489;SDS011;20730;49.372;7.324;2023-05-10T14:36:48;3.03;;;0.95;;
34489;SDS011;20730;49.372;7.324;2023-05-10T14:39:16;2.67;;;0.40;;
34489;SDS011;20730;49.372;7.324;2023-05-10T14:41:43;2.95;;;0.57;;
34489;SDS011;20730;49.372;7.324;2023-05-10T14:44:11;1.48;;;0.75;;
34489;SDS011;20730;49.372;7.324;2023-05-10T14:46:38;1.92;;;0.60;;
34489;SDS011;20730;49.372;7.324;2023-05-10T14:49:06;3.20;;;1.25;;
34489;SDS011;20730;49.372;7.324;2023-05-10T14:51:32;1.98;;;0.40;;
34489;SDS011;20730;49.372;7.324;2023-05-10T14:54:00;1.40;;;0.47;;
34489;SDS011;20730;49.372;7.324;2023-05-10T14:56:27;1.98;;;0.50;;
34489;SDS011;20730;49.372;7.324;2023-05-10T14:58:54;4.70;;;0.98;;
34489;SDS011;20730;49.372;7.324;2023-05-10T15:01:22;1.55;;;0.40;;
34489;SDS011;20730;49.372;7.324;2023-05-10T15:03:50;5.00;;;0.50;;
34489;SDS011;20730;49.372;7.324;2023-05-10T15:06:22;2.00;;;0.45;;
34489;SDS011;20730;49.372;7.324;2023-05-10T15:08:51;2.25;;;0.43;;
34489;SDS011;20730;49.372;7.324;2023-05-10T15:11:18;1.00;;;0.40;;
34489;SDS011;20730;49.372;7.324;2023-05-10T15:13:47;2.05;;;1.10;;
34489;SDS011;20730;49.372;7.324;2023-05-10T15:16:14;2.55;;;0.60;;
34489;SDS011;20730;49.372;7.324;2023-05-10T15:18:41;4.13;;;0.80;;
34489;SDS011;20730;49.372;7.324;2023-05-10T15:21:08;1.58;;;0.43;;
34489;SDS011;20730;49.372;7.324;2023-05-10T15:23:35;0.98;;;0.50;;
34489;SDS011;20730;49.372;7.324;2023-05-10T15:26:02;1.92;;;0.50;;
34489;SDS011;20730;49.372;7.324;2023-05-10T15:28:29;1.77;;;0.50;;
34489;SDS011;20730;49.372;7.324;2023-05-10T15:30:59;2.15;;;0.75;;
34489;SDS011;20730;49.372;7.324;2023-05-10T15:33:27;1.88;;;0.40;;
34489;SDS011;20730;49.372;7.324;2023-05-10T15:35:54;2.00;;;0.40;;
34489;SDS011;20730;49.372;7.324;2023-05-10T15:38:21;1.42;;;0.32;;
34489;SDS011;20730;49.372;7.324;2023-05-10T15:40:48;1.67;;;0.50;;